Latest  Newer  Older  Last 2 hours animation  Current image  Latest image 
Rain/snow radar  Infrared sat images 
Real-time lightning map

All time is UTC (add 2 hours to UTC in wintertime, 3 hours to UTC in DST for Latvia local time)

2021/10/25 09:20 EVRA 250920Z 19012KT 9999 OVC009 05/03 Q1023 R18/190095 NOSIG
2021/10/25 09:20 EVLA 250920Z AUTO 19012KT 150V220 9999 SCT011/// BKN013/// 08/06 Q1021
2021/10/25 09:20 EVVA 250920Z AUTO 20015KT 9999 SCT019 BKN025 11/08 Q1020
2021/10/25 09:20 EYKA 250920Z 17009KT 130V210 CAVOK 07/01 Q1027
2021/10/25 09:20 EYPA 250920Z 17011KT 9999 FEW011 08/05 Q1022
2021/10/25 09:20 EYSA 250920Z 20015KT 170V230 CAVOK 06/03 Q1024 NOSIG
2021/10/25 09:20 EYVI 250920Z 20014KT CAVOK 06/02 Q1028 NOSIG
2021/10/25 07:20 EEKA 250720Z 22008KT 150V260 9999 BKN038 10/05 Q1018
2021/10/25 09:20 EEKE 250920Z 23009KT 200V260 9999 BKN025 OVC032 09/06 Q1019

2021/10/25 09:20 EETN 250920Z 23012KT 9999 FEW020 OVC040 09/05 Q1017 NOSIG
2021/10/25 09:20 EETU 250920Z 21013KT 9999 BKN042 07/04 Q1020
   RIGA AIRPORT     EVRA               56 55N  023 58E   10   X     T          6 LV
   LIEPAJA INTL     EVLA        26406  56 31N  021 06E    4   X                8 LV
   VENTPILS         EVVA               57 21N  021 33E    6   X                8 LV
   KAUNAS           EYKA               54 54N  023 55E   77   X     T          6 LT
   PALANGA INTL     EYPA               55 55N  021 03E   10   X                6 LT
   SIAULIAI INTL    EYSA               55 54N  023 24E  135   X     T          6 LT
   VILNIUS INTL     EYVI        26730  54 38N  025 17E  197   X     T          6 LT
   KARDLA           EEKA        26116  58 59N  022 50E    4   X                8 EE
   KURESSAARE       EEKE               58 14N  022 31E    4   X                8 EE
   PARNU            EEPU               58 25N  024 28E   14   X                8 EE
   TALLINN          EETN        26038  59 24N  024 49E   40   X     T          8 EE
   TARTU            EETU               58 19N  026 41E   67   X                8 EE

cloud coverage image from sat24.com and METAR data from weather.noaa.gov